sensor_id;sensor_type;location;lat;lon;timestamp;pressure;altitude;pressure_sealevel;temperature;humidity
20111;BME280;10216;42.658;23.248;2023-06-19T00:02:17;93841.53;;;16.96;nan
20111;BME280;10216;42.658;23.248;2023-06-19T00:04:42;93842.53;;;16.95;nan
20111;BME280;10216;42.658;23.248;2023-06-19T00:07:07;93842.16;;;16.98;nan
20111;BME280;10216;42.658;23.248;2023-06-19T00:09:33;93843.94;;;17.04;nan
20111;BME280;10216;42.658;23.248;2023-06-19T00:11:58;93835.38;;;17.04;nan
20111;BME280;10216;42.658;23.248;2023-06-19T00:14:25;93848.34;;;17.04;nan
20111;BME280;10216;42.658;23.248;2023-06-19T00:16:50;93843.75;;;17.06;nan
20111;BME280;10216;42.658;23.248;2023-06-19T00:19:16;93841.34;;;17.04;nan
20111;BME280;10216;42.658;23.248;2023-06-19T00:21:42;93836.16;;;17.11;nan
20111;BME280;10216;42.658;23.248;2023-06-19T00:24:09;93829.75;;;17.00;nan
20111;BME280;10216;42.658;23.248;2023-06-19T00:26:35;93831.78;;;17.05;nan
20111;BME280;10216;42.658;23.248;2023-06-19T00:29:00;93826.19;;;16.95;nan
20111;BME280;10216;42.658;23.248;2023-06-19T00:31:25;93838.56;;;17.06;nan
20111;BME280;10216;42.658;23.248;2023-06-19T00:33:52;93835.38;;;17.04;nan
20111;BME280;10216;42.658;23.248;2023-06-19T00:36:18;93821.78;;;17.08;nan
20111;BME280;10216;42.658;23.248;2023-06-19T00:38:45;93831.16;;;17.09;nan
20111;BME280;10216;42.658;23.248;2023-06-19T00:41:11;93830.56;;;17.07;nan
20111;BME280;10216;42.658;23.248;2023-06-19T00:43:37;93828.19;;;16.99;nan
20111;BME280;10216;42.658;23.248;2023-06-19T00:46:03;93824.78;;;16.99;nan
20111;BME280;10216;42.658;23.248;2023-06-19T00:48:30;93819.00;;;16.90;nan
20111;BME280;10216;42.658;23.248;2023-06-19T00:50:55;93819.00;;;16.77;nan
20111;BME280;10216;42.658;23.248;2023-06-19T00:53:22;93817.41;;;16.89;nan
20111;BME280;10216;42.658;23.248;2023-06-19T00:55:48;93814.19;;;16.81;nan
20111;BME280;10216;42.658;23.248;2023-06-19T00:58:13;93807.63;;;16.85;nan
20111;BME280;10216;42.658;23.248;2023-06-19T01:00:40;93791.06;;;16.72;nan
20111;BME280;10216;42.658;23.248;2023-06-19T01:03:05;93783.47;;;16.64;nan
20111;BME280;10216;42.658;23.248;2023-06-19T01:05:31;93786.25;;;16.56;nan
20111;BME280;10216;42.658;23.248;2023-06-19T01:08:03;93783.84;;;16.48;nan
20111;BME280;10216;42.658;23.248;2023-06-19T01:10:38;93791.56;;;16.28;nan
20111;BME280;10216;42.658;23.248;2023-06-19T01:13:08;93788.59;;;16.18;nan
20111;BME280;10216;42.658;23.248;2023-06-19T01:15:36;93793.34;;;16.15;nan
20111;BME280;10216;42.658;23.248;2023-06-19T01:18:03;93779.56;;;16.08;nan
20111;BME280;10216;42.658;23.248;2023-06-19T01:20:29;93785.34;;;15.96;nan
20111;BME280;10216;42.658;23.248;2023-06-19T01:22:56;93784.88;;;15.80;nan
20111;BME280;10216;42.658;23.248;2023-06-19T01:25:25;93783.06;;;15.74;nan
20111;BME280;10216;42.658;23.248;2023-06-19T01:27:51;93790.97;;;15.66;nan
20111;BME280;10216;42.658;23.248;2023-06-19T01:30:16;93786.19;;;15.56;nan
20111;BME280;10216;42.658;23.248;2023-06-19T01:32:58;93780.66;;;15.38;nan
20111;BME280;10216;42.658;23.248;2023-06-19T01:35:28;93782.25;;;15.32;nan
20111;BME280;10216;42.658;23.248;2023-06-19T01:37:54;93789.34;;;15.23;nan
20111;BME280;10216;42.658;23.248;2023-06-19T01:40:23;93795.31;;;15.24;nan
20111;BME280;10216;42.658;23.248;2023-06-19T01:42:53;93796.13;;;15.24;nan
20111;BME280;10216;42.658;23.248;2023-06-19T01:45:20;93793.69;;;15.16;nan
20111;BME280;10216;42.658;23.248;2023-06-19T01:47:46;93790.47;;;15.14;nan
20111;BME280;10216;42.658;23.248;2023-06-19T01:50:12;93797.66;;;15.12;nan
20111;BME280;10216;42.658;23.248;2023-06-19T01:52:38;93793.81;;;15.08;nan
20111;BME280;10216;42.658;23.248;2023-06-19T01:55:04;93796.00;;;15.05;nan
20111;BME280;10216;42.658;23.248;2023-06-19T01:57:30;93796.84;;;15.12;nan
20111;BME280;10216;42.658;23.248;2023-06-19T01:59:56;93803.19;;;15.09;nan
20111;BME280;10216;42.658;23.248;2023-06-19T02:02:21;93805.78;;;15.09;nan
20111;BME280;10216;42.658;23.248;2023-06-19T02:04:47;93803.44;;;15.21;nan
20111;BME280;10216;42.658;23.248;2023-06-19T02:07:12;93812.41;;;15.18;nan
20111;BME280;10216;42.658;23.248;2023-06-19T02:09:38;93807.03;;;15.20;nan
20111;BME280;10216;42.658;23.248;2023-06-19T02:12:04;93806.25;;;15.19;nan
20111;BME280;10216;42.658;23.248;2023-06-19T02:14:30;93815.41;;;15.22;nan
20111;BME280;10216;42.658;23.248;2023-06-19T02:16:55;93812.00;;;15.21;nan
20111;BME280;10216;42.658;23.248;2023-06-19T02:19:20;93821.59;;;15.28;nan
20111;BME280;10216;42.658;23.248;2023-06-19T02:21:46;93812.81;;;15.22;nan
20111;BME280;10216;42.658;23.248;2023-06-19T02:24:11;93817.63;;;15.25;nan
20111;BME280;10216;42.658;23.248;2023-06-19T02:26:36;93816.78;;;15.18;nan
20111;BME280;10216;42.658;23.248;2023-06-19T02:29:02;93821.31;;;15.16;nan
20111;BME280;10216;42.658;23.248;2023-06-19T02:31:27;93824.94;;;15.21;nan
20111;BME280;10216;42.658;23.248;2023-06-19T02:33:52;93825.84;;;15.07;nan
20111;BME280;10216;42.658;23.248;2023-06-19T02:36:18;93824.22;;;15.06;nan
20111;BME280;10216;42.658;23.248;2023-06-19T02:38:47;93827.41;;;15.02;nan
20111;BME280;10216;42.658;23.248;2023-06-19T02:41:13;93817.84;;;15.02;nan
20111;BME280;10216;42.658;23.248;2023-06-19T02:43:42;93825.16;;;14.99;nan
20111;BME280;10216;42.658;23.248;2023-06-19T02:46:08;93831.34;;;14.98;nan
20111;BME280;10216;42.658;23.248;2023-06-19T02:48:33;93823.72;;;14.90;nan
20111;BME280;10216;42.658;23.248;2023-06-19T02:50:59;93822.66;;;14.84;nan
20111;BME280;10216;42.658;23.248;2023-06-19T02:53:24;93829.22;;;14.80;nan
20111;BME280;10216;42.658;23.248;2023-06-19T02:55:49;93826.41;;;14.75;nan
20111;BME280;10216;42.658;23.248;2023-06-19T02:58:15;93827.78;;;14.77;nan
20111;BME280;10216;42.658;23.248;2023-06-19T03:00:40;93832.78;;;14.79;nan
20111;BME280;10216;42.658;23.248;2023-06-19T03:03:05;93828.53;;;14.71;nan
20111;BME280;10216;42.658;23.248;2023-06-19T03:05:31;93839.69;;;14.72;nan
20111;BME280;10216;42.658;23.248;2023-06-19T03:07:56;93836.81;;;14.60;nan
20111;BME280;10216;42.658;23.248;2023-06-19T03:10:22;93827.63;;;14.58;nan
20111;BME280;10216;42.658;23.248;2023-06-19T03:12:47;93833.78;;;14.57;nan
20111;BME280;10216;42.658;23.248;2023-06-19T03:15:12;93836.00;;;14.60;nan
20111;BME280;10216;42.658;23.248;2023-06-19T03:17:38;93835.75;;;14.55;nan
20111;BME280;10216;42.658;23.248;2023-06-19T03:20:03;93834.22;;;14.60;nan
20111;BME280;10216;42.658;23.248;2023-06-19T03:22:31;93834.41;;;14.59;nan
20111;BME280;10216;42.658;23.248;2023-06-19T03:24:56;93838.59;;;14.60;nan
20111;BME280;10216;42.658;23.248;2023-06-19T03:27:21;93840.53;;;14.58;nan
20111;BME280;10216;42.658;23.248;2023-06-19T03:29:47;93833.78;;;14.57;nan
20111;BME280;10216;42.658;23.248;2023-06-19T03:32:12;93831.19;;;14.57;nan
20111;BME280;10216;42.658;23.248;2023-06-19T03:34:38;93835.50;;;14.50;nan
20111;BME280;10216;42.658;23.248;2023-06-19T03:37:03;93833.78;;;14.57;nan
20111;BME280;10216;42.658;23.248;2023-06-19T03:39:29;93835.81;;;14.61;nan
20111;BME280;10216;42.658;23.248;2023-06-19T03:41:54;93832.03;;;14.64;nan
20111;BME280;10216;42.658;23.248;2023-06-19T03:44:20;93830.25;;;14.64;nan
20111;BME280;10216;42.658;23.248;2023-06-19T03:46:46;93831.56;;;14.75;nan
20111;BME280;10216;42.658;23.248;2023-06-19T03:49:12;93830.00;;;14.80;nan
20111;BME280;10216;42.658;23.248;2023-06-19T03:51:38;93830.00;;;14.80;nan
20111;BME280;10216;42.658;23.248;2023-06-19T03:54:03;93824.78;;;14.74;nan
20111;BME280;10216;42.658;23.248;2023-06-19T03:56:29;93827.59;;;14.79;nan
20111;BME280;10216;42.658;23.248;2023-06-19T03:58:54;93827.66;;;14.85;nan
20111;BME280;10216;42.658;23.248;2023-06-19T04:01:20;93833.28;;;14.89;nan
20111;BME280;10216;42.658;23.248;2023-06-19T04:03:45;93832.53;;;14.95;nan
20111;BME280;10216;42.658;23.248;2023-06-19T04:06:10;93830.91;;;14.94;nan
20111;BME280;10216;42.658;23.248;2023-06-19T04:08:36;93828.78;;;14.98;nan
20111;BME280;10216;42.658;23.248;2023-06-19T04:11:01;93824.22;;;15.06;nan
20111;BME280;10216;42.658;23.248;2023-06-19T04:13:27;93825.09;;;15.13;nan
20111;BME280;10216;42.658;23.248;2023-06-19T04:15:52;93829.53;;;15.19;nan
20111;BME280;10216;42.658;23.248;2023-06-19T04:18:17;93838.06;;;15.20;nan
20111;BME280;10216;42.658;23.248;2023-06-19T04:20:43;93831.56;;;15.31;nan
20111;BME280;10216;42.658;23.248;2023-06-19T04:23:08;93820.84;;;15.34;nan
20111;BME280;10216;42.658;23.248;2023-06-19T04:25:34;93820.91;;;15.40;nan
20111;BME280;10216;42.658;23.248;2023-06-19T04:28:00;93827.47;;;15.43;nan
20111;BME280;10216;42.658;23.248;2023-06-19T04:30:29;93827.78;;;15.54;nan
20111;BME280;10216;42.658;23.248;2023-06-19T04:32:55;93832.22;;;15.67;nan
20111;BME280;10216;42.658;23.248;2023-06-19T04:35:20;93821.44;;;15.63;nan
20111;BME280;10216;42.658;23.248;2023-06-19T04:37:46;93824.69;;;15.79;nan
20111;BME280;10216;42.658;23.248;2023-06-19T04:40:13;93827.91;;;15.87;nan
20111;BME280;10216;42.658;23.248;2023-06-19T04:42:39;93829.16;;;15.91;nan
20111;BME280;10216;42.658;23.248;2023-06-19T04:45:05;93821.97;;;15.93;nan
20111;BME280;10216;42.658;23.248;2023-06-19T04:47:33;93828.38;;;15.97;nan
20111;BME280;10216;42.658;23.248;2023-06-19T04:49:59;93818.44;;;16.08;nan
20111;BME280;10216;42.658;23.248;2023-06-19T04:52:25;93824.25;;;16.23;nan
20111;BME280;10216;42.658;23.248;2023-06-19T04:54:50;93820.69;;;16.37;nan
20111;BME280;10216;42.658;23.248;2023-06-19T04:57:16;93817.72;;;16.40;nan
20111;BME280;10216;42.658;23.248;2023-06-19T04:59:44;93817.38;;;16.56;nan
20111;BME280;10216;42.658;23.248;2023-06-19T05:02:10;93822.94;;;16.60;nan
20111;BME280;10216;42.658;23.248;2023-06-19T05:04:36;93821.97;;;16.67;nan
20111;BME280;10216;42.658;23.248;2023-06-19T05:07:01;93817.22;;;16.71;nan
20111;BME280;10216;42.658;23.248;2023-06-19T05:09:27;93822.22;;;16.86;nan
20111;BME280;10216;42.658;23.248;2023-06-19T05:11:53;93818.63;;;17.00;nan
20111;BME280;10216;42.658;23.248;2023-06-19T05:14:18;93824.00;;;17.05;nan
20111;BME280;10216;42.658;23.248;2023-06-19T05:16:44;93827.38;;;16.99;nan
20111;BME280;10216;42.658;23.248;2023-06-19T05:19:09;93828.56;;;17.16;nan
20111;BME280;10216;42.658;23.248;2023-06-19T05:21:35;93831.38;;;17.21;nan
20111;BME280;10216;42.658;23.248;2023-06-19T05:24:00;93830.56;;;17.27;nan
20111;BME280;10216;42.658;23.248;2023-06-19T05:26:26;93827.38;;;17.18;nan
20111;BME280;10216;42.658;23.248;2023-06-19T05:28:51;93828.94;;;17.33;nan
20111;BME280;10216;42.658;23.248;2023-06-19T05:31:17;93834.13;;;17.39;nan
20111;BME280;10216;42.658;23.248;2023-06-19T05:33:43;93847.69;;;17.48;nan
20111;BME280;10216;42.658;23.248;2023-06-19T05:36:09;93843.91;;;17.57;nan
20111;BME280;10216;42.658;23.248;2023-06-19T05:38:34;93851.28;;;17.67;nan
20111;BME280;10216;42.658;23.248;2023-06-19T05:41:01;93859.66;;;17.75;nan
20111;BME280;10216;42.658;23.248;2023-06-19T05:43:27;93848.03;;;17.84;nan
20111;BME280;10216;42.658;23.248;2023-06-19T05:45:53;93855.22;;;17.89;nan
20111;BME280;10216;42.658;23.248;2023-06-19T05:48:19;93854.84;;;17.85;nan
20111;BME280;10216;42.658;23.248;2023-06-19T05:50:45;93850.03;;;17.89;nan
20111;BME280;10216;42.658;23.248;2023-06-19T05:53:10;93860.97;;;18.04;nan
20111;BME280;10216;42.658;23.248;2023-06-19T05:55:36;93851.28;;;18.24;nan
20111;BME280;10216;42.658;23.248;2023-06-19T05:58:02;93854.66;;;18.31;nan
20111;BME280;10216;42.658;23.248;2023-06-19T06:00:29;93857.44;;;18.37;nan
20111;BME280;10216;42.658;23.248;2023-06-19T06:02:58;93866.78;;;18.44;nan
20111;BME280;10216;42.658;23.248;2023-06-19T06:05:27;93863.16;;;18.58;nan
20111;BME280;10216;42.658;23.248;2023-06-19T06:07:56;93861.31;;;18.65;nan
20111;BME280;10216;42.658;23.248;2023-06-19T06:10:23;93860.47;;;18.71;nan
20111;BME280;10216;42.658;23.248;2023-06-19T06:12:49;93871.84;;;18.77;nan
20111;BME280;10216;42.658;23.248;2023-06-19T06:15:15;93863.19;;;18.83;nan
20111;BME280;10216;42.658;23.248;2023-06-19T06:17:40;93869.78;;;18.86;nan
20111;BME280;10216;42.658;23.248;2023-06-19T06:20:06;93868.50;;;18.95;nan
20111;BME280;10216;42.658;23.248;2023-06-19T06:22:38;93875.19;;;19.09;nan
20111;BME280;10216;42.658;23.248;2023-06-19T06:25:04;93881.34;;;19.21;nan
20111;BME280;10216;42.658;23.248;2023-06-19T06:27:30;93874.91;;;19.24;nan
20111;BME280;10216;42.658;23.248;2023-06-19T06:29:55;93873.94;;;19.43;nan
20111;BME280;10216;42.658;23.248;2023-06-19T06:32:21;93880.03;;;19.37;nan
20111;BME280;10216;42.658;23.248;2023-06-19T06:34:46;93888.34;;;19.52;nan
20111;BME280;10216;42.658;23.248;2023-06-19T06:37:12;93885.47;;;19.78;nan
20111;BME280;10216;42.658;23.248;2023-06-19T06:39:38;93878.66;;;19.77;nan
20111;BME280;10216;42.658;23.248;2023-06-19T06:42:03;93878.38;;;19.85;nan
20111;BME280;10216;42.658;23.248;2023-06-19T06:44:29;93884.03;;;20.01;nan
20111;BME280;10216;42.658;23.248;2023-06-19T06:46:54;93895.13;;;20.14;nan
20111;BME280;10216;42.658;23.248;2023-06-19T06:49:20;93884.53;;;20.27;nan
20111;BME280;10216;42.658;23.248;2023-06-19T06:51:46;93884.47;;;20.52;nan
20111;BME280;10216;42.658;23.248;2023-06-19T06:54:12;93890.41;;;20.59;nan
20111;BME280;10216;42.658;23.248;2023-06-19T06:56:38;93892.47;;;20.69;nan
20111;BME280;10216;42.658;23.248;2023-06-19T06:59:03;93877.88;;;20.80;nan
20111;BME280;10216;42.658;23.248;2023-06-19T07:01:28;93884.50;;;20.94;nan
20111;BME280;10216;42.658;23.248;2023-06-19T07:03:54;93880.56;;;21.03;nan
20111;BME280;10216;42.658;23.248;2023-06-19T07:06:19;93883.94;;;21.03;nan
20111;BME280;10216;42.658;23.248;2023-06-19T07:08:45;93876.09;;;21.03;nan
20111;BME280;10216;42.658;23.248;2023-06-19T07:11:13;93879.81;;;21.26;nan
20111;BME280;10216;42.658;23.248;2023-06-19T07:13:38;93871.69;;;21.46;nan
20111;BME280;10216;42.658;23.248;2023-06-19T07:16:05;93887.47;;;21.51;nan
20111;BME280;10216;42.658;23.248;2023-06-19T07:18:30;93877.94;;;21.56;nan
20111;BME280;10216;42.658;23.248;2023-06-19T07:20:55;93877.34;;;21.54;nan
20111;BME280;10216;42.658;23.248;2023-06-19T07:23:21;93882.03;;;21.75;nan
20111;BME280;10216;42.658;23.248;2023-06-19T07:25:47;93883.38;;;21.78;nan
20111;BME280;10216;42.658;23.248;2023-06-19T07:28:12;93887.34;;;21.92;nan
20111;BME280;10216;42.658;23.248;2023-06-19T07:30:39;93893.72;;;22.08;nan
20111;BME280;10216;42.658;23.248;2023-06-19T07:33:04;93893.63;;;22.03;nan
20111;BME280;10216;42.658;23.248;2023-06-19T07:35:29;93894.63;;;22.25;nan
20111;BME280;10216;42.658;23.248;2023-06-19T07:37:55;93903.09;;;22.44;nan
20111;BME280;10216;42.658;23.248;2023-06-19T07:40:20;93896.72;;;22.51;nan
20111;BME280;10216;42.658;23.248;2023-06-19T07:42:46;93899.41;;;22.68;nan
20111;BME280;10216;42.658;23.248;2023-06-19T07:45:12;93895.75;;;22.69;nan
20111;BME280;10216;42.658;23.248;2023-06-19T07:47:38;93896.16;;;22.89;nan
20111;BME280;10216;42.658;23.248;2023-06-19T07:50:04;93896.97;;;23.07;nan
20111;BME280;10216;42.658;23.248;2023-06-19T07:52:29;93897.41;;;23.32;nan
20111;BME280;10216;42.658;23.248;2023-06-19T07:54:56;93903.69;;;23.64;nan
20111;BME280;10216;42.658;23.248;2023-06-19T07:57:23;93902.50;;;23.89;nan
20111;BME280;10216;42.658;23.248;2023-06-19T07:59:49;93900.75;;;24.16;nan
20111;BME280;10216;42.658;23.248;2023-06-19T08:02:15;93910.41;;;24.27;nan
20111;BME280;10216;42.658;23.248;2023-06-19T08:04:41;93905.91;;;24.28;nan
20111;BME280;10216;42.658;23.248;2023-06-19T08:07:07;93907.00;;;24.27;nan
20111;BME280;10216;42.658;23.248;2023-06-19T08:09:32;93903.06;;;24.73;nan
20111;BME280;10216;42.658;23.248;2023-06-19T08:11:58;93902.06;;;24.79;nan
20111;BME280;10216;42.658;23.248;2023-06-19T08:14:23;93903.63;;;24.75;nan
20111;BME280;10216;42.658;23.248;2023-06-19T08:16:49;93902.94;;;24.84;nan
20111;BME280;10216;42.658;23.248;2023-06-19T08:19:14;93909.31;;;25.15;nan
20111;BME280;10216;42.658;23.248;2023-06-19T08:21:40;93896.88;;;25.64;nan
20111;BME280;10216;42.658;23.248;2023-06-19T08:24:05;93904.31;;;25.46;nan
20111;BME280;10216;42.658;23.248;2023-06-19T08:26:31;93900.72;;;25.25;nan
20111;BME280;10216;42.658;23.248;2023-06-19T08:28:56;93906.31;;;25.60;nan
20111;BME280;10216;42.658;23.248;2023-06-19T08:31:22;93911.19;;;26.21;nan
20111;BME280;10216;42.658;23.248;2023-06-19T08:33:56;93914.91;;;25.83;nan
20111;BME280;10216;42.658;23.248;2023-06-19T08:36:21;93900.56;;;26.05;nan
20111;BME280;10216;42.658;23.248;2023-06-19T08:38:47;93910.56;;;26.09;nan
20111;BME280;10216;42.658;23.248;2023-06-19T08:41:16;93907.53;;;26.89;nan
20111;BME280;10216;42.658;23.248;2023-06-19T08:43:44;93906.88;;;27.34;nan
20111;BME280;10216;42.658;23.248;2023-06-19T08:46:11;93912.00;;;26.89;nan
20111;BME280;10216;42.658;23.248;2023-06-19T08:48:38;93906.13;;;27.64;nan
20111;BME280;10216;42.658;23.248;2023-06-19T08:51:04;93910.00;;;28.32;nan
20111;BME280;10216;42.658;23.248;2023-06-19T08:53:34;93901.78;;;28.49;nan
20111;BME280;10216;42.658;23.248;2023-06-19T08:56:03;93908.47;;;27.81;nan
20111;BME280;10216;42.658;23.248;2023-06-19T08:58:29;93916.50;;;28.60;nan
20111;BME280;10216;42.658;23.248;2023-06-19T09:00:57;93913.97;;;29.09;nan
20111;BME280;10216;42.658;23.248;2023-06-19T09:03:22;93911.88;;;29.01;nan
20111;BME280;10216;42.658;23.248;2023-06-19T09:05:48;93914.38;;;29.27;nan
20111;BME280;10216;42.658;23.248;2023-06-19T09:08:18;93917.66;;;29.86;nan
20111;BME280;10216;42.658;23.248;2023-06-19T09:11:00;93906.00;;;30.45;nan
20111;BME280;10216;42.658;23.248;2023-06-19T09:13:26;93910.13;;;30.56;nan
20111;BME280;10216;42.658;23.248;2023-06-19T09:16:05;93908.97;;;31.05;nan
20111;BME280;10216;42.658;23.248;2023-06-19T09:18:41;93916.19;;;30.81;nan
20111;BME280;10216;42.658;23.248;2023-06-19T09:21:06;93909.75;;;30.87;nan
20111;BME280;10216;42.658;23.248;2023-06-19T09:23:32;93914.25;;;31.48;nan
20111;BME280;10216;42.658;23.248;2023-06-19T09:25:57;93918.50;;;31.30;nan
20111;BME280;10216;42.658;23.248;2023-06-19T09:28:27;93913.63;;;30.52;nan
20111;BME280;10216;42.658;23.248;2023-06-19T09:31:02;93914.59;;;31.03;nan
20111;BME280;10216;42.658;23.248;2023-06-19T09:33:32;93919.06;;;31.46;nan
20111;BME280;10216;42.658;23.248;2023-06-19T09:35:59;93911.56;;;32.17;nan
20111;BME280;10216;42.658;23.248;2023-06-19T09:38:29;93913.06;;;32.24;nan
20111;BME280;10216;42.658;23.248;2023-06-19T09:40:56;93910.91;;;32.39;nan
20111;BME280;10216;42.658;23.248;2023-06-19T09:43:24;93913.84;;;32.65;nan
20111;BME280;10216;42.658;23.248;2023-06-19T09:45:54;93915.50;;;33.16;nan
20111;BME280;10216;42.658;23.248;2023-06-19T09:48:27;93921.88;;;33.64;nan
20111;BME280;10216;42.658;23.248;2023-06-19T09:50:56;93923.00;;;33.27;nan
20111;BME280;10216;42.658;23.248;2023-06-19T09:53:24;93918.13;;;33.43;nan
20111;BME280;10216;42.658;23.248;2023-06-19T09:55:50;93914.59;;;33.70;nan
20111;BME280;10216;42.658;23.248;2023-06-19T09:58:20;93910.38;;;33.91;nan
20111;BME280;10216;42.658;23.248;2023-06-19T10:00:47;93907.06;;;34.47;nan
20111;BME280;10216;42.658;23.248;2023-06-19T10:03:15;93900.03;;;34.21;nan
20111;BME280;10216;42.658;23.248;2023-06-19T10:05:42;93894.78;;;34.16;nan
20111;BME280;10216;42.658;23.248;2023-06-19T10:08:08;93900.84;;;33.99;nan
20111;BME280;10216;42.658;23.248;2023-06-19T10:10:34;93900.44;;;34.76;nan
20111;BME280;10216;42.658;23.248;2023-06-19T10:13:12;93902.31;;;34.75;nan
20111;BME280;10216;42.658;23.248;2023-06-19T10:15:41;93904.03;;;34.80;nan
20111;BME280;10216;42.658;23.248;2023-06-19T10:18:15;93895.94;;;35.02;nan
20111;BME280;10216;42.658;23.248;2023-06-19T10:20:45;93890.97;;;35.61;nan
20111;BME280;10216;42.658;23.248;2023-06-19T10:23:20;93889.25;;;35.39;nan
20111;BME280;10216;42.658;23.248;2023-06-19T10:25:54;93890.59;;;34.85;nan
20111;BME280;10216;42.658;23.248;2023-06-19T10:28:21;93880.91;;;35.41;nan
20111;BME280;10216;42.658;23.248;2023-06-19T10:31:07;93880.22;;;36.04;nan
20111;BME280;10216;42.658;23.248;2023-06-19T10:33:34;93883.69;;;36.05;nan
20111;BME280;10216;42.658;23.248;2023-06-19T10:36:16;93890.09;;;36.38;nan
20111;BME280;10216;42.658;23.248;2023-06-19T10:38:42;93892.94;;;36.62;nan
20111;BME280;10216;42.658;23.248;2023-06-19T10:41:23;93877.78;;;35.21;nan
20111;BME280;10216;42.658;23.248;2023-06-19T10:44:08;93883.09;;;36.46;nan
20111;BME280;10216;42.658;23.248;2023-06-19T10:46:38;93881.56;;;37.03;nan
20111;BME280;10216;42.658;23.248;2023-06-19T10:49:05;93887.63;;;37.21;nan
20111;BME280;10216;42.658;23.248;2023-06-19T10:51:35;93886.22;;;37.65;nan
20111;BME280;10216;42.658;23.248;2023-06-19T10:54:00;93885.91;;;37.79;nan
20111;BME280;10216;42.658;23.248;2023-06-19T10:56:26;93888.09;;;37.23;nan
20111;BME280;10216;42.658;23.248;2023-06-19T10:59:02;93884.88;;;37.30;nan
20111;BME280;10216;42.658;23.248;2023-06-19T11:01:47;93885.13;;;37.78;nan
20111;BME280;10216;42.658;23.248;2023-06-19T11:04:14;93884.84;;;36.88;nan
20111;BME280;10216;42.658;23.248;2023-06-19T11:06:41;93881.78;;;36.31;nan
20111;BME280;10216;42.658;23.248;2023-06-19T11:09:08;93877.16;;;36.40;nan
20111;BME280;10216;42.658;23.248;2023-06-19T11:14:01;93873.84;;;37.52;nan
20111;BME280;10216;42.658;23.248;2023-06-19T11:16:27;93866.16;;;38.41;nan
20111;BME280;10216;42.658;23.248;2023-06-19T11:18:57;93874.66;;;39.28;nan
20111;BME280;10216;42.658;23.248;2023-06-19T11:21:30;93876.16;;;39.65;nan
20111;BME280;10216;42.658;23.248;2023-06-19T11:23:57;93880.75;;;38.76;nan
20111;BME280;10216;42.658;23.248;2023-06-19T11:26:24;93875.16;;;38.69;nan
20111;BME280;10216;42.658;23.248;2023-06-19T11:28:50;93868.44;;;38.99;nan
20111;BME280;10216;42.658;23.248;2023-06-19T11:31:15;93862.66;;;38.97;nan
20111;BME280;10216;42.658;23.248;2023-06-19T11:33:40;93863.84;;;38.39;nan
20111;BME280;10216;42.658;23.248;2023-06-19T11:36:06;93858.34;;;37.37;nan
20111;BME280;10216;42.658;23.248;2023-06-19T11:38:31;93858.66;;;34.71;nan
20111;BME280;10216;42.658;23.248;2023-06-19T11:40:59;93850.09;;;34.52;nan
20111;BME280;10216;42.658;23.248;2023-06-19T11:43:31;93847.78;;;34.20;nan
20111;BME280;10216;42.658;23.248;2023-06-19T11:46:07;93852.91;;;34.07;nan
20111;BME280;10216;42.658;23.248;2023-06-19T11:48:36;93844.47;;;33.39;nan
20111;BME280;10216;42.658;23.248;2023-06-19T11:51:02;93839.97;;;33.70;nan
20111;BME280;10216;42.658;23.248;2023-06-19T11:53:27;93841.91;;;34.40;nan
20111;BME280;10216;42.658;23.248;2023-06-19T11:55:53;93835.97;;;35.26;nan
20111;BME280;10216;42.658;23.248;2023-06-19T11:58:18;93840.72;;;34.55;nan
20111;BME280;10216;42.658;23.248;2023-06-19T12:00:47;93836.06;;;33.45;nan
20111;BME280;10216;42.658;23.248;2023-06-19T12:03:13;93841.63;;;32.85;nan
20111;BME280;10216;42.658;23.248;2023-06-19T12:05:38;93825.53;;;32.54;nan
20111;BME280;10216;42.658;23.248;2023-06-19T12:08:04;93831.19;;;32.07;nan
20111;BME280;10216;42.658;23.248;2023-06-19T12:10:31;93823.09;;;31.01;nan
20111;BME280;10216;42.658;23.248;2023-06-19T12:12:56;93828.53;;;30.48;nan
20111;BME280;10216;42.658;23.248;2023-06-19T12:15:22;93828.84;;;30.89;nan
20111;BME280;10216;42.658;23.248;2023-06-19T12:17:48;93827.63;;;30.82;nan
20111;BME280;10216;42.658;23.248;2023-06-19T12:20:13;93816.41;;;30.85;nan
20111;BME280;10216;42.658;23.248;2023-06-19T12:22:40;93822.31;;;31.19;nan
20111;BME280;10216;42.658;23.248;2023-06-19T12:25:05;93819.03;;;31.41;nan
20111;BME280;10216;42.658;23.248;2023-06-19T12:27:31;93816.19;;;31.70;nan
20111;BME280;10216;42.658;23.248;2023-06-19T12:29:56;93814.09;;;31.34;nan
20111;BME280;10216;42.658;23.248;2023-06-19T12:32:22;93814.16;;;31.16;nan
20111;BME280;10216;42.658;23.248;2023-06-19T12:34:47;93813.34;;;30.11;nan
20111;BME280;10216;42.658;23.248;2023-06-19T12:37:16;93816.16;;;30.20;nan
20111;BME280;10216;42.658;23.248;2023-06-19T12:39:44;93806.59;;;31.04;nan
20111;BME280;10216;42.658;23.248;2023-06-19T12:42:10;93813.50;;;32.02;nan
20111;BME280;10216;42.658;23.248;2023-06-19T12:44:39;93816.34;;;32.06;nan
20111;BME280;10216;42.658;23.248;2023-06-19T12:47:05;93810.88;;;32.16;nan
20111;BME280;10216;42.658;23.248;2023-06-19T12:49:31;93813.03;;;33.05;nan
20111;BME280;10216;42.658;23.248;2023-06-19T12:51:56;93813.16;;;33.44;nan
20111;BME280;10216;42.658;23.248;2023-06-19T12:54:22;93809.38;;;34.21;nan
20111;BME280;10216;42.658;23.248;2023-06-19T12:56:48;93812.75;;;34.43;nan
20111;BME280;10216;42.658;23.248;2023-06-19T12:59:14;93814.09;;;34.80;nan
20111;BME280;10216;42.658;23.248;2023-06-19T13:01:40;93820.78;;;34.61;nan
20111;BME280;10216;42.658;23.248;2023-06-19T13:04:06;93824.50;;;32.91;nan
20111;BME280;10216;42.658;23.248;2023-06-19T13:06:31;93803.25;;;33.00;nan
20111;BME280;10216;42.658;23.248;2023-06-19T13:08:57;93811.28;;;33.67;nan
20111;BME280;10216;42.658;23.248;2023-06-19T13:11:23;93810.25;;;34.07;nan